KEWR/EWR METAR and TAF weather

Enter ICAO airport designator
Station Type Date Time Source
KEWR METAR 2021/01/22 05:51 UTC NOAA

KEWR 220551Z 23007KT 10SM BKN075 01/M04 A2961 RMK AO2 SLP026 T00111039 10039 20006 58008 $


Station Type Date Time Source
KEWR Decoded METAR 2021/01/22 05:51 UTC NOAA

NEWARK INTERNATIONAL AIRPORT, NJ, United States (KEWR) 40-41N 74-10W 7M
Jan 22, 2021 - 12:51 AM EST / 2021.01.22 0551 UTC
Wind: from the SW (230 degrees) at 8 MPH (7 KT):0
Visibility: 10 mile(s):0
Sky conditions: mostly cloudy
Temperature: 34.0 F (1.1 C)
Windchill: 26 F (-3 C):1
Dew Point: 25.0 F (-3.9 C)
Relative Humidity: 69%
Pressure (altimeter): 29.61 in. Hg (1002 hPa)
Pressure tendency: 0.02 inches (0.8 hPa) lower than three hours ago
ob: KEWR 220551Z 23007KT 10SM BKN075 01/M04 A2961 RMK AO2 SLP026 T00111039 10039 20006 58008
cycle: 6

Station Type Date Time Source
KEWR TAF 2021/01/22 06:36 UTC NOAA

TAF KEWR 220532Z 2206/2312 23005KT P6SM BKN070
FM221200 26010KT P6SM SCT040
FM221500 27016G23KT P6SM BKN040
FM230100 30015G21KT P6SM SCT040

Example: see airport list